Time;durP1;ratioP1;P1;durP2;ratioP2;P2;SDS_P1;SDS_P2;PMS_P1;PMS_P2;Temp;Humidity;BMP_temperature;BMP_pressure;BME280_temperature;BME280_humidity;BME280_pressure;Samples;Min_cycle;Max_cycle;Signal;HPM_P1;HPM_P2
2023/11/04 00:01:17;;;;;;;3.33;0.80;;;22.80;56.70;;;;;;6092787;23;89051;-88
2023/11/04 00:03:44;;;;;;;0.93;0.70;;;22.80;56.70;;;;;;6072449;23;90649;-88
2023/11/04 00:06:10;;;;;;;2.10;0.70;;;22.70;56.70;;;;;;6058081;23;87497;-88
2023/11/04 00:08:36;;;;;;;1.15;0.75;;;22.70;56.60;;;;;;6079857;23;89305;-88
2023/11/04 00:11:01;;;;;;;1.48;0.73;;;22.70;56.80;;;;;;6081177;23;90726;-87
2023/11/04 00:13:27;;;;;;;1.77;0.95;;;22.60;56.60;;;;;;6082994;23;88414;-87
2023/11/04 00:15:53;;;;;;;1.15;0.70;;;22.60;56.70;;;;;;6083105;23;87462;-88
2023/11/04 00:18:19;;;;;;;4.35;1.10;;;22.60;56.70;;;;;;6081836;23;89866;-88
2023/11/04 00:20:45;;;;;;;1.45;0.80;;;22.60;57.00;;;;;;6079638;23;89110;-89
2023/11/04 00:23:10;;;;;;;1.40;0.80;;;22.60;57.00;;;;;;6081095;23;90401;-87
2023/11/04 00:25:44;;;;;;;1.92;1.00;;;22.60;56.90;;;;;;6085641;23;88603;-88
2023/11/04 00:28:10;;;;;;;1.23;0.80;;;22.60;56.90;;;;;;6066660;23;88331;-86
2023/11/04 00:30:36;;;;;;;0.95;0.88;;;22.60;56.90;;;;;;6064096;23;89698;-88
2023/11/04 00:33:01;;;;;;;1.35;0.80;;;22.60;56.90;;;;;;6085491;23;90534;-88
2023/11/04 00:35:27;;;;;;;1.52;0.85;;;22.50;56.90;;;;;;6087388;23;87461;-88
2023/11/04 00:37:52;;;;;;;1.42;0.70;;;22.50;56.90;;;;;;6058175;23;89177;-88
2023/11/04 00:40:19;;;;;;;0.98;0.80;;;22.50;56.90;;;;;;6059387;23;89814;-88
2023/11/04 00:42:44;;;;;;;0.98;0.77;;;22.50;56.90;;;;;;6085632;23;89198;-88
2023/11/04 00:45:10;;;;;;;0.90;0.70;;;22.40;56.90;;;;;;6064977;23;87036;-89
2023/11/04 00:47:36;;;;;;;1.48;0.77;;;22.40;56.90;;;;;;6054836;23;88465;-87
2023/11/04 00:50:01;;;;;;;1.10;0.80;;;22.40;56.90;;;;;;6056304;23;91301;-88
2023/11/04 00:52:27;;;;;;;1.25;0.77;;;22.40;57.00;;;;;;6105551;23;89556;-87
2023/11/04 00:54:52;;;;;;;0.70;0.65;;;22.40;57.00;;;;;;6069257;23;87599;-87
2023/11/04 00:57:18;;;;;;;1.23;0.70;;;22.30;56.90;;;;;;6058710;23;89789;-87
2023/11/04 00:59:44;;;;;;;1.38;0.65;;;22.30;57.00;;;;;;6082699;23;87790;-88
2023/11/04 01:02:10;;;;;;;1.13;0.88;;;22.30;56.90;;;;;;6083920;23;87700;-88
2023/11/04 01:04:35;;;;;;;1.30;0.73;;;22.30;57.00;;;;;;6085919;23;87239;-86
2023/11/04 01:07:01;;;;;;;1.48;0.80;;;22.30;57.00;;;;;;6069678;23;89537;-87
2023/11/04 01:09:36;;;;;;;1.08;0.77;;;22.30;57.10;;;;;;6060592;23;90265;-87
2023/11/04 01:12:02;;;;;;;1.10;0.80;;;22.30;57.20;;;;;;6081547;23;87238;-86
2023/11/04 01:14:28;;;;;;;1.10;0.63;;;22.20;57.00;;;;;;6080782;23;88692;-88
2023/11/04 01:16:53;;;;;;;0.82;0.70;;;22.20;57.00;;;;;;6084816;23;89474;-87
2023/11/04 01:19:19;;;;;;;1.23;0.68;;;22.20;57.10;;;;;;6091703;23;87077;-87
2023/11/04 01:21:44;;;;;;;1.27;0.70;;;22.20;57.10;;;;;;6082520;23;87837;-88
2023/11/04 01:24:10;;;;;;;0.85;0.70;;;22.20;57.10;;;;;;6081371;23;87874;-89
2023/11/04 01:26:36;;;;;;;1.25;0.80;;;22.20;57.00;;;;;;6081665;23;89400;-87
2023/11/04 01:29:02;;;;;;;1.02;0.80;;;22.20;57.00;;;;;;6083977;23;87619;-86
2023/11/04 01:31:27;;;;;;;1.10;0.65;;;22.20;57.00;;;;;;6062785;23;89278;-87
2023/11/04 01:33:53;;;;;;;1.67;0.90;;;22.10;57.20;;;;;;6066780;23;87367;-88
2023/11/04 01:36:21;;;;;;;3.53;0.88;;;22.10;57.20;;;;;;6082585;23;87320;-88
2023/11/04 01:38:47;;;;;;;0.88;0.63;;;22.10;57.10;;;;;;6082622;23;88699;-86
2023/11/04 01:41:12;;;;;;;1.45;0.77;;;22.10;57.00;;;;;;6082922;23;91407;-88
2023/11/04 01:43:38;;;;;;;1.25;0.73;;;22.10;57.20;;;;;;6072234;23;87302;-88
2023/11/04 01:46:07;;;;;;;1.17;0.70;;;22.10;57.30;;;;;;6085285;23;89996;-87
2023/11/04 01:48:45;;;;;;;0.77;0.57;;;22.10;57.10;;;;;;6101849;23;87689;-88
2023/11/04 01:51:12;;;;;;;1.80;1.00;;;22.10;57.50;;;;;;6078290;23;89068;-88
2023/11/04 01:53:41;;;;;;;1.08;0.68;;;22.00;57.10;;;;;;6056566;23;87241;-87
2023/11/04 01:56:10;;;;;;;2.35;0.93;;;22.00;57.20;;;;;;6058319;23;88041;-88
2023/11/04 01:58:37;;;;;;;2.00;0.87;;;22.00;57.10;;;;;;6056759;23;90815;-88
2023/11/04 02:01:04;;;;;;;0.63;0.63;;;22.00;57.20;;;;;;6056694;23;89885;-87
2023/11/04 02:03:30;;;;;;;0.90;0.60;;;22.00;57.30;;;;;;6055395;23;88604;-87
2023/11/04 02:05:56;;;;;;;0.95;0.60;;;22.00;57.30;;;;;;6086945;23;87611;-88
2023/11/04 02:08:22;;;;;;;1.67;0.93;;;22.00;57.20;;;;;;6113039;23;87599;-88
2023/11/04 02:10:48;;;;;;;0.80;0.80;;;22.00;57.10;;;;;;6059090;23;90467;-88
2023/11/04 02:13:14;;;;;;;0.73;0.52;;;21.90;57.10;;;;;;6070106;23;87566;-88
2023/11/04 02:15:39;;;;;;;0.60;0.50;;;21.90;57.10;;;;;;6084898;23;89456;-86
2023/11/04 02:18:05;;;;;;;0.70;0.60;;;21.90;57.10;;;;;;6105667;23;88339;-88
2023/11/04 02:20:35;;;;;;;0.65;0.60;;;21.90;57.10;;;;;;6081943;23;90041;-87
2023/11/04 02:23:01;;;;;;;0.60;0.60;;;21.90;57.20;;;;;;6055079;23;87154;-88
2023/11/04 02:25:36;;;;;;;2.83;1.25;;;21.90;57.10;;;;;;6054961;23;88469;-87
2023/11/04 02:28:01;;;;;;;0.95;0.60;;;21.90;57.20;;;;;;6099423;23;89060;-88
2023/11/04 02:30:27;;;;;;;1.10;0.70;;;21.90;57.30;;;;;;6076025;23;91007;-87
2023/11/04 02:32:53;;;;;;;0.70;0.52;;;21.90;57.30;;;;;;6040912;23;87685;-87
2023/11/04 02:35:19;;;;;;;0.65;0.60;;;21.90;57.30;;;;;;6055338;23;89662;-88
2023/11/04 02:37:47;;;;;;;0.90;0.60;;;21.90;57.20;;;;;;6054848;23;90606;-87
2023/11/04 02:40:13;;;;;;;1.20;0.70;;;21.80;57.30;;;;;;6099058;23;87288;-87
2023/11/04 02:42:39;;;;;;;0.68;0.57;;;21.80;57.10;;;;;;6099499;23;87694;-87
2023/11/04 02:45:06;;;;;;;0.80;0.57;;;21.80;57.20;;;;;;6079260;23;89740;-87
2023/11/04 02:47:32;;;;;;;1.17;0.55;;;21.80;57.20;;;;;;6057202;23;89588;-88
2023/11/04 02:49:58;;;;;;;0.82;0.68;;;21.80;57.20;;;;;;6082894;23;87927;-87
2023/11/04 02:52:23;;;;;;;0.50;0.50;;;21.80;57.20;;;;;;6057412;23;88452;-86
2023/11/04 02:54:49;;;;;;;1.40;0.60;;;21.80;57.20;;;;;;6057650;23;87959;-87
2023/11/04 02:57:15;;;;;;;1.52;0.70;;;21.80;57.40;;;;;;6090234;23;88241;-88
2023/11/04 02:59:41;;;;;;;0.68;0.50;;;21.80;57.50;;;;;;6085140;23;89980;-87
2023/11/04 03:02:06;;;;;;;1.30;0.63;;;21.80;57.40;;;;;;6083275;23;87996;-88
2023/11/04 03:04:34;;;;;;;0.65;0.60;;;21.80;57.30;;;;;;6061964;23;89693;-88
2023/11/04 03:07:00;;;;;;;1.17;0.60;;;21.80;57.40;;;;;;6068426;23;89561;-87
2023/11/04 03:09:25;;;;;;;0.80;0.70;;;21.80;57.50;;;;;;6092293;23;87392;-87
2023/11/04 03:11:52;;;;;;;0.73;0.50;;;21.80;57.40;;;;;;6086917;23;87582;-87
2023/11/04 03:14:18;;;;;;;0.93;0.65;;;21.70;57.40;;;;;;6087051;23;88282;-88
2023/11/04 03:16:43;;;;;;;1.35;0.75;;;21.70;57.30;;;;;;6112824;23;88805;-87
2023/11/04 03:19:09;;;;;;;1.13;0.98;;;21.70;57.30;;;;;;6112507;23;90001;-87
2023/11/04 03:21:35;;;;;;;0.63;0.55;;;21.70;57.30;;;;;;6113788;23;87390;-87
2023/11/04 03:24:00;;;;;;;0.52;0.52;;;21.70;57.20;;;;;;6085584;23;88808;-88
2023/11/04 03:26:26;;;;;;;0.52;0.50;;;21.70;57.30;;;;;;6087253;23;91105;-87
2023/11/04 03:28:52;;;;;;;1.48;0.68;;;21.70;57.40;;;;;;6112386;23;88411;-87
2023/11/04 03:31:17;;;;;;;2.15;0.60;;;21.60;57.40;;;;;;6113185;23;87289;-87
2023/11/04 03:33:43;;;;;;;0.70;0.50;;;21.60;57.50;;;;;;6085207;23;89903;-87
2023/11/04 03:36:09;;;;;;;0.60;0.50;;;21.70;57.40;;;;;;6085975;23;90621;-87
2023/11/04 03:38:35;;;;;;;0.73;0.60;;;21.60;57.30;;;;;;6115519;23;87987;-87
2023/11/04 03:41:01;;;;;;;0.63;0.63;;;21.60;57.20;;;;;;6086087;23;88327;-87
2023/11/04 03:43:27;;;;;;;1.17;0.70;;;21.60;57.20;;;;;;6081807;23;89364;-88
2023/11/04 03:45:52;;;;;;;0.93;0.52;;;21.70;57.40;;;;;;6069796;23;90445;-87
2023/11/04 03:48:18;;;;;;;0.70;0.60;;;21.60;57.40;;;;;;6056482;23;90069;-87
2023/11/04 03:50:43;;;;;;;0.70;0.50;;;21.60;57.40;;;;;;6057933;23;87593;-87
2023/11/04 03:53:09;;;;;;;0.52;0.50;;;21.70;57.40;;;;;;6112909;23;87900;-87
2023/11/04 03:55:38;;;;;;;0.60;0.57;;;21.60;57.30;;;;;;6060804;23;89195;-87
2023/11/04 03:58:03;;;;;;;0.90;0.90;;;21.60;57.40;;;;;;6055783;23;89313;-87
2023/11/04 04:00:29;;;;;;;0.77;0.50;;;21.60;57.40;;;;;;6094036;23;87597;-88
2023/11/04 04:02:55;;;;;;;0.80;0.65;;;21.60;57.40;;;;;;6109720;23;87345;-87
2023/11/04 04:05:21;;;;;;;0.68;0.57;;;21.60;57.50;;;;;;6081239;23;91290;-88
2023/11/04 04:07:46;;;;;;;0.82;0.40;;;21.60;57.40;;;;;;6060886;23;89913;-88
2023/11/04 04:10:12;;;;;;;1.23;0.70;;;21.60;57.40;;;;;;6056157;23;86927;-87
2023/11/04 04:12:38;;;;;;;1.15;0.70;;;21.50;57.50;;;;;;6097777;23;87247;-88
2023/11/04 04:15:04;;;;;;;1.33;0.60;;;21.60;57.50;;;;;;6063707;23;90487;-87
2023/11/04 04:17:30;;;;;;;0.90;0.63;;;21.60;57.40;;;;;;6082628;23;88906;-88
2023/11/04 04:19:55;;;;;;;0.77;0.60;;;21.60;57.40;;;;;;6079200;23;93397;-88
2023/11/04 04:22:21;;;;;;;0.85;0.50;;;21.50;57.40;;;;;;6047957;23;87628;-88
2023/11/04 04:24:46;;;;;;;0.60;0.45;;;21.50;57.50;;;;;;6056269;23;91102;-86
2023/11/04 04:27:12;;;;;;;1.27;0.73;;;21.50;57.50;;;;;;6056146;23;89833;-88
2023/11/04 04:29:38;;;;;;;0.80;0.63;;;21.50;57.50;;;;;;6054648;23;90379;-86
2023/11/04 04:32:04;;;;;;;0.52;0.50;;;21.50;57.50;;;;;;6085291;23;89424;-88
2023/11/04 04:34:29;;;;;;;0.98;0.60;;;21.50;57.60;;;;;;6061584;23;90912;-88
2023/11/04 04:36:57;;;;;;;0.75;0.45;;;21.50;57.60;;;;;;6083902;23;88103;-88
2023/11/04 04:39:23;;;;;;;0.40;0.40;;;21.50;57.60;;;;;;6056554;23;87615;-87
2023/11/04 04:41:48;;;;;;;0.70;0.50;;;21.50;57.60;;;;;;6058579;23;88978;-88
2023/11/04 04:44:14;;;;;;;0.88;0.60;;;21.50;57.70;;;;;;6113919;23;88154;-88
2023/11/04 04:46:42;;;;;;;0.60;0.60;;;21.50;57.80;;;;;;6060020;23;89435;-87
2023/11/04 04:49:08;;;;;;;0.60;0.60;;;21.50;57.70;;;;;;6082958;23;87203;-87
2023/11/04 04:51:34;;;;;;;0.82;0.55;;;21.50;57.70;;;;;;6094837;23;87639;-87
2023/11/04 04:54:01;;;;;;;0.88;0.60;;;21.50;57.60;;;;;;6079894;23;91355;-87
2023/11/04 04:56:27;;;;;;;1.48;0.60;;;21.40;57.50;;;;;;6081013;23;91407;-86
2023/11/04 04:58:53;;;;;;;0.68;0.57;;;21.40;57.50;;;;;;6110946;23;87417;-87
2023/11/04 05:01:19;;;;;;;1.10;0.77;;;21.40;57.50;;;;;;6085063;23;89196;-87
2023/11/04 05:03:45;;;;;;;0.88;0.60;;;21.40;57.40;;;;;;6085417;23;90360;-88
2023/11/04 05:06:12;;;;;;;0.80;0.50;;;21.40;57.40;;;;;;6085722;22;89861;-88
2023/11/04 05:08:37;;;;;;;0.60;0.57;;;21.40;57.40;;;;;;6084328;23;87703;-88
2023/11/04 05:11:04;;;;;;;0.60;0.40;;;21.40;57.70;;;;;;6086318;23;89325;-87
2023/11/04 05:13:30;;;;;;;1.10;0.80;;;21.40;57.50;;;;;;6086095;23;90063;-87
2023/11/04 05:15:56;;;;;;;0.40;0.40;;;21.40;57.50;;;;;;6086316;23;90675;-88
2023/11/04 05:18:22;;;;;;;0.70;0.55;;;21.40;57.50;;;;;;6086911;23;88162;-88
2023/11/04 05:20:47;;;;;;;0.45;0.40;;;21.40;57.50;;;;;;6086481;23;89278;-89
2023/11/04 05:23:14;;;;;;;0.45;0.40;;;21.30;57.50;;;;;;6112403;23;88301;-87
2023/11/04 05:25:39;;;;;;;0.88;0.50;;;21.40;57.50;;;;;;6070800;23;89582;-88
2023/11/04 05:28:05;;;;;;;0.82;0.55;;;21.30;57.50;;;;;;6085115;23;87434;-88
2023/11/04 05:30:31;;;;;;;1.08;0.77;;;21.40;57.60;;;;;;6111834;23;87233;-88
2023/11/04 05:32:58;;;;;;;0.93;0.80;;;21.30;57.40;;;;;;6111146;23;88756;-87
2023/11/04 05:35:24;;;;;;;0.88;0.60;;;21.40;57.60;;;;;;6086510;23;89969;-87
2023/11/04 05:37:52;;;;;;;0.95;0.50;;;21.40;57.70;;;;;;6084981;23;86947;-87
2023/11/04 05:40:18;;;;;;;1.45;0.60;;;21.30;57.50;;;;;;6084849;23;89499;-88
2023/11/04 05:42:44;;;;;;;0.85;0.60;;;21.30;57.50;;;;;;6111775;23;89200;-87
2023/11/04 05:45:10;;;;;;;1.05;0.50;;;21.30;57.60;;;;;;6085045;23;91802;-87
2023/11/04 05:47:35;;;;;;;0.60;0.60;;;21.40;57.50;;;;;;6086815;23;87227;-87
2023/11/04 05:50:05;;;;;;;0.60;0.50;;;21.30;57.60;;;;;;6056584;23;88157;-87
2023/11/04 05:52:31;;;;;;;0.35;0.35;;;21.30;57.50;;;;;;6106649;23;88186;-87
2023/11/04 05:54:56;;;;;;;1.17;0.50;;;21.40;57.60;;;;;;6069174;23;90254;-87
2023/11/04 05:57:22;;;;;;;0.40;0.40;;;21.30;57.60;;;;;;6055137;23;87349;-88
2023/11/04 05:59:47;;;;;;;0.40;0.40;;;21.30;58.20;;;;;;6058963;23;88462;-87
2023/11/04 06:02:13;;;;;;;1.45;0.57;;;21.30;57.60;;;;;;6085696;23;90445;-89
2023/11/04 06:04:39;;;;;;;0.63;0.55;;;21.30;57.70;;;;;;6088129;23;87941;-88
2023/11/04 06:07:05;;;;;;;0.93;0.60;;;21.30;57.60;;;;;;6066506;23;88300;-87
2023/11/04 06:09:32;;;;;;;0.32;0.32;;;21.30;57.60;;;;;;6060668;23;91123;-87
2023/11/04 06:11:59;;;;;;;0.90;0.50;;;21.30;57.60;;;;;;6080700;23;90433;-88
2023/11/04 06:14:26;;;;;;;0.45;0.40;;;21.30;57.60;;;;;;6081632;23;89823;-86
2023/11/04 06:16:52;;;;;;;0.98;0.63;;;21.20;57.40;;;;;;6085477;23;87103;-86
2023/11/04 06:19:18;;;;;;;0.70;0.40;;;21.30;57.50;;;;;;6065026;23;89491;-88
2023/11/04 06:21:45;;;;;;;2.85;0.60;;;21.20;57.50;;;;;;6066192;23;90655;-88
2023/11/04 06:24:11;;;;;;;0.73;0.50;;;21.20;57.60;;;;;;6088939;23;90701;-89
2023/11/04 06:26:37;;;;;;;0.70;0.50;;;21.30;57.60;;;;;;6114017;23;87862;-86
2023/11/04 06:29:03;;;;;;;3.45;0.55;;;21.20;56.90;;;;;;6083742;23;89287;-88
2023/11/04 06:31:32;;;;;;;0.70;0.35;;;21.20;57.20;;;;;;6061299;23;91227;-87
2023/11/04 06:33:57;;;;;;;0.63;0.50;;;21.20;57.60;;;;;;6083069;23;88594;-89
2023/11/04 06:36:23;;;;;;;0.98;0.75;;;21.20;57.40;;;;;;6093088;23;87163;-85
2023/11/04 06:38:49;;;;;;;1.58;0.60;;;21.20;57.50;;;;;;6107103;23;87594;-84
2023/11/04 06:41:19;;;;;;;0.80;0.65;;;21.20;57.50;;;;;;6082308;23;88055;-84
2023/11/04 06:43:49;;;;;;;1.48;0.70;;;21.20;57.40;;;;;;6082348;23;87285;-86
2023/11/04 06:46:15;;;;;;;0.80;0.60;;;21.20;57.40;;;;;;6064024;23;87685;-85
2023/11/04 06:48:41;;;;;;;0.82;0.63;;;21.20;57.40;;;;;;6082069;23;86794;-86
2023/11/04 06:51:07;;;;;;;0.95;0.50;;;21.20;57.30;;;;;;6088036;23;88439;-84
2023/11/04 06:53:33;;;;;;;0.70;0.60;;;21.20;57.30;;;;;;6113048;23;87914;-84
2023/11/04 06:56:00;;;;;;;1.27;0.73;;;21.20;57.20;;;;;;6082082;23;88107;-85
2023/11/04 06:58:29;;;;;;;0.77;0.52;;;21.20;57.20;;;;;;6082775;23;87304;-84
2023/11/04 07:00:55;;;;;;;2.75;0.60;;;21.20;57.20;;;;;;6080538;23;90859;-84
2023/11/04 07:03:21;;;;;;;0.85;0.60;;;21.20;57.20;;;;;;6081653;23;88399;-86
2023/11/04 07:05:47;;;;;;;1.15;0.60;;;21.20;57.20;;;;;;6081057;23;87895;-85
2023/11/04 07:08:16;;;;;;;1.65;0.60;;;21.20;57.20;;;;;;6079769;23;89862;-84
2023/11/04 07:10:45;;;;;;;3.63;0.90;;;21.20;57.20;;;;;;6080289;23;88200;-84
2023/11/04 07:13:14;;;;;;;1.00;0.68;;;21.20;57.30;;;;;;6102080;23;92722;-86
2023/11/04 07:15:44;;;;;;;1.20;0.60;;;21.20;57.50;;;;;;6111171;22;87864;-85
2023/11/04 07:18:12;;;;;;;1.63;0.70;;;21.20;57.30;;;;;;6072180;23;89555;-85
2023/11/04 07:20:39;;;;;;;2.80;0.80;;;21.10;57.80;;;;;;6110531;23;88956;-85
2023/11/04 07:23:07;;;;;;;2.28;0.52;;;21.20;57.20;;;;;;6111844;23;88634;-85
2023/11/04 07:25:34;;;;;;;1.25;0.80;;;21.20;57.20;;;;;;6110083;23;87222;-86
2023/11/04 07:28:00;;;;;;;1.20;0.55;;;21.20;57.20;;;;;;6085705;23;89543;-86
2023/11/04 07:30:26;;;;;;;1.10;0.45;;;21.10;57.10;;;;;;6113608;23;88234;-89
2023/11/04 07:32:52;;;;;;;1.35;0.60;;;21.10;57.00;;;;;;6088086;23;90152;-87
2023/11/04 07:35:20;;;;;;;1.80;0.70;;;21.10;57.20;;;;;;6113182;23;87308;-87
2023/11/04 07:37:50;;;;;;;1.25;0.50;;;21.10;57.20;;;;;;6112919;23;86784;-87
2023/11/04 07:40:16;;;;;;;0.70;0.70;;;21.20;57.30;;;;;;6111013;23;88909;-87
2023/11/04 07:42:42;;;;;;;1.90;0.80;;;21.20;57.40;;;;;;6111410;23;87221;-87
2023/11/04 07:45:12;;;;;;;7.93;2.13;;;21.20;57.40;;;;;;6085332;23;88292;-85
2023/11/04 07:47:40;;;;;;;;;;;21.30;57.50;;;;;;6085470;23;88097;-87
2023/11/04 07:50:07;;;;;;;11.98;3.10;;;21.20;57.10;;;;;;6116516;23;87292;-87
2023/11/04 07:52:33;;;;;;;19.20;4.55;;;21.30;57.10;;;;;;6087016;23;90141;-86
2023/11/04 07:54:58;;;;;;;21.48;3.83;;;21.30;57.00;;;;;;6086024;23;87353;-87
2023/11/04 07:57:24;;;;;;;31.05;4.88;;;21.30;57.30;;;;;;6114903;23;87459;-87
2023/11/04 07:59:50;;;;;;;19.80;4.32;;;21.30;57.40;;;;;;6086242;23;90109;-87
2023/11/04 08:02:15;;;;;;;16.85;4.35;;;21.40;57.60;;;;;;6090413;23;89226;-85
2023/11/04 08:04:41;;;;;;;23.40;5.03;;;21.40;57.90;;;;;;6116575;23;87263;-85
2023/11/04 08:07:09;;;;;;;19.58;4.45;;;21.40;58.50;;;;;;6086359;23;89435;-84
2023/11/04 08:09:35;;;;;;;15.60;2.90;;;21.40;57.90;;;;;;6111051;23;88759;-85
2023/11/04 08:12:01;;;;;;;15.88;4.22;;;21.50;58.00;;;;;;6084416;23;93993;-85
2023/11/04 08:14:26;;;;;;;17.45;4.70;;;21.40;58.00;;;;;;6086873;23;87874;-84
2023/11/04 08:16:53;;;;;;;20.27;5.30;;;21.50;58.60;;;;;;6112959;23;87392;-87
2023/11/04 08:19:19;;;;;;;21.38;5.13;;;21.50;58.00;;;;;;6111874;23;88157;-87
2023/11/04 08:21:49;;;;;;;21.48;4.88;;;21.50;58.40;;;;;;6086646;23;90377;-86
2023/11/04 08:24:15;;;;;;;19.58;4.63;;;21.50;58.60;;;;;;6115817;23;87610;-86
2023/11/04 08:26:41;;;;;;;19.85;4.25;;;21.50;58.50;;;;;;6088176;23;89056;-83
2023/11/04 08:29:06;;;;;;;22.30;4.88;;;21.50;58.80;;;;;;6113885;23;87627;-85
2023/11/04 08:31:32;;;;;;;18.92;4.50;;;21.50;59.20;;;;;;6116414;23;88425;-84
2023/11/04 08:33:57;;;;;;;19.52;5.03;;;21.50;59.10;;;;;;6111328;23;87865;-84
2023/11/04 08:36:23;;;;;;;18.58;4.53;;;21.50;59.00;;;;;;6110800;23;87247;-87
2023/11/04 08:38:49;;;;;;;13.90;4.05;;;21.50;58.90;;;;;;6110832;23;87731;-88
2023/11/04 08:41:14;;;;;;;19.27;4.75;;;21.50;59.00;;;;;;6113576;23;87873;-87
2023/11/04 08:43:40;;;;;;;21.20;4.63;;;21.50;59.40;;;;;;6088240;23;87506;-89
2023/11/04 08:46:07;;;;;;;21.00;5.55;;;21.50;59.10;;;;;;6086939;23;87916;-88
2023/11/04 08:48:33;;;;;;;16.23;4.50;;;21.50;59.50;;;;;;6112619;23;87446;-89
2023/11/04 08:50:58;;;;;;;18.55;4.15;;;21.50;59.40;;;;;;6087187;23;90344;-91
2023/11/04 08:53:24;;;;;;;14.05;3.67;;;21.50;59.30;;;;;;6088519;23;87243;-87
2023/11/04 08:55:50;;;;;;;13.45;3.30;;;21.60;59.20;;;;;;6112859;23;87596;-86
2023/11/04 08:58:15;;;;;;;10.85;3.80;;;21.60;59.10;;;;;;6111743;23;89620;-87
2023/11/04 09:00:41;;;;;;;12.82;3.47;;;21.60;59.20;;;;;;6085251;23;90975;-86
2023/11/04 09:03:08;;;;;;;14.48;3.60;;;21.60;59.00;;;;;;6092476;23;87328;-86
2023/11/04 09:05:34;;;;;;;11.98;3.58;;;21.70;58.90;;;;;;6084866;23;88970;-87
2023/11/04 09:08:02;;;;;;;17.58;4.63;;;21.70;58.90;;;;;;6096991;23;87381;-87
2023/11/04 09:10:29;;;;;;;11.15;3.88;;;21.70;58.80;;;;;;6110705;23;87990;-87
2023/11/04 09:12:56;;;;;;;15.82;3.90;;;21.70;59.00;;;;;;6085806;23;87399;-88
2023/11/04 09:15:22;;;;;;;15.60;4.88;;;21.80;58.90;;;;;;6086058;23;88782;-87
2023/11/04 09:17:48;;;;;;;12.10;3.60;;;21.80;59.00;;;;;;6083743;23;89699;-88
2023/11/04 09:20:13;;;;;;;14.38;4.05;;;21.80;59.20;;;;;;6112566;23;88491;-88
2023/11/04 09:22:39;;;;;;;14.73;4.13;;;21.80;59.10;;;;;;6084640;23;88252;-89
2023/11/04 09:25:06;;;;;;;15.07;4.68;;;21.80;59.20;;;;;;6085516;23;89567;-87
2023/11/04 09:27:31;;;;;;;11.45;4.05;;;21.80;59.20;;;;;;6085127;23;91207;-86
2023/11/04 09:29:58;;;;;;;14.25;4.32;;;21.80;59.00;;;;;;6111956;23;88392;-87
2023/11/04 09:32:24;;;;;;;15.82;4.50;;;21.80;59.00;;;;;;6091184;23;87745;-87
2023/11/04 09:34:49;;;;;;;12.48;4.07;;;21.80;59.10;;;;;;6084852;23;89422;-86
2023/11/04 09:37:15;;;;;;;11.40;3.75;;;21.80;59.10;;;;;;6083750;23;90370;-85
2023/11/04 09:39:40;;;;;;;11.75;3.92;;;21.80;59.30;;;;;;6112207;23;90197;-87
2023/11/04 09:42:13;;;;;;;13.65;4.18;;;21.80;59.30;;;;;;6084351;23;88270;-88
2023/11/04 09:44:39;;;;;;;15.93;4.20;;;21.80;59.40;;;;;;6112313;23;87476;-87
2023/11/04 09:47:05;;;;;;;11.80;3.63;;;21.80;59.50;;;;;;6084941;23;91148;-85
2023/11/04 09:49:31;;;;;;;13.02;4.13;;;21.80;59.50;;;;;;6083817;23;91201;-86
2023/11/04 09:52:05;;;;;;;12.05;3.60;;;21.80;59.30;;;;;;6111917;23;87199;-86
2023/11/04 09:54:31;;;;;;;14.77;4.47;;;21.80;59.40;;;;;;6083625;23;89361;-88
2023/11/04 09:56:58;;;;;;;11.35;3.17;;;21.80;59.30;;;;;;6084113;23;91309;-86
2023/11/04 09:59:25;;;;;;;12.98;3.50;;;21.80;59.30;;;;;;6111503;23;88010;-86
2023/11/04 10:01:51;;;;;;;10.07;3.85;;;21.90;59.40;;;;;;6085461;23;87897;-86
2023/11/04 10:04:16;;;;;;;11.48;3.95;;;21.80;59.40;;;;;;6111188;23;87294;-86
2023/11/04 10:06:42;;;;;;;12.52;3.88;;;21.90;59.50;;;;;;6084547;23;90474;-86
2023/11/04 10:09:08;;;;;;;8.60;3.30;;;21.90;59.40;;;;;;6110521;23;88255;-85
2023/11/04 10:11:34;;;;;;;9.52;3.60;;;21.90;59.40;;;;;;6112268;23;88388;-88
2023/11/04 10:14:01;;;;;;;13.63;3.60;;;21.90;59.40;;;;;;6085550;23;89509;-87
2023/11/04 10:16:28;;;;;;;13.07;3.75;;;21.90;58.70;;;;;;6071747;23;90667;-88
2023/11/04 10:18:54;;;;;;;12.82;4.15;;;21.90;58.30;;;;;;6086429;23;90315;-90
2023/11/04 10:21:21;;;;;;;11.60;3.90;;;21.90;57.80;;;;;;6091332;23;87849;-88
2023/11/04 10:23:47;;;;;;;13.55;3.65;;;21.80;58.90;;;;;;6087590;23;88210;-88
2023/11/04 10:26:15;;;;;;;12.82;4.60;;;21.90;58.20;;;;;;6087281;23;90743;-88
2023/11/04 10:28:41;;;;;;;15.98;4.80;;;21.90;58.40;;;;;;6087526;23;93635;-90
2023/11/04 10:31:07;;;;;;;14.10;4.13;;;21.90;58.10;;;;;;6088991;23;87505;-88
2023/11/04 10:33:37;;;;;;;9.73;3.38;;;21.80;57.90;;;;;;6096195;23;89955;-87
2023/11/04 10:36:04;;;;;;;11.45;3.83;;;21.90;58.30;;;;;;6086527;23;90509;-87
2023/11/04 10:38:34;;;;;;;11.52;4.15;;;21.90;58.40;;;;;;6112841;23;90044;-87
2023/11/04 10:41:02;;;;;;;20.25;6.72;;;21.90;58.40;;;;;;6085526;23;87361;-86
2023/11/04 10:43:32;;;;;;;41.53;11.57;;;21.90;58.10;;;;;;6086737;23;89402;-87
2023/11/04 10:46:07;;;;;;;41.45;12.15;;;21.90;58.30;;;;;;6085542;23;90436;-89
2023/11/04 10:49:23;;;;;;;49.17;13.85;;;21.90;58.20;;;;;;6087215;23;89275;-89
2023/11/04 10:52:15;;;;;;;46.40;13.88;;;21.90;58.30;;;;;;6079182;23;88951;-89
2023/11/04 10:55:07;;;;;;;43.15;12.15;;;21.90;58.20;;;;;;6088873;23;87994;-88
2023/11/04 10:57:36;;;;;;;39.22;11.23;;;21.90;57.90;;;;;;6088047;23;89483;-90
2023/11/04 11:00:07;;;;;;;35.15;10.48;;;21.90;57.50;;;;;;6087778;23;90694;-88
2023/11/04 11:02:35;;;;;;;35.88;11.13;;;21.90;57.30;;;;;;6086787;23;88317;-87
2023/11/04 11:05:02;;;;;;;44.05;12.85;;;21.90;58.40;;;;;;6056197;23;93612;-88
2023/11/04 11:07:28;;;;;;;35.80;11.50;;;21.90;59.60;;;;;;6056651;23;91010;-88
2023/11/04 11:09:54;;;;;;;32.78;10.93;;;21.90;59.80;;;;;;6054224;23;88587;-87
2023/11/04 11:12:22;;;;;;;36.15;11.05;;;21.90;60.00;;;;;;6042701;23;87327;-88
2023/11/04 11:14:49;;;;;;;33.20;9.73;;;21.90;59.80;;;;;;6058343;23;89633;-88
2023/11/04 11:17:16;;;;;;;30.27;9.27;;;22.00;60.00;;;;;;6087914;23;89242;-88
2023/11/04 11:19:46;;;;;;;29.50;9.73;;;22.00;59.90;;;;;;6098183;23;88031;-87
2023/11/04 11:22:23;;;;;;;26.75;8.70;;;22.00;59.90;;;;;;6065603;23;87734;-86
2023/11/04 11:24:52;;;;;;;27.65;8.27;;;22.00;60.80;;;;;;6056799;23;88238;-88
2023/11/04 11:27:18;;;;;;;22.73;8.02;;;22.10;59.90;;;;;;6064460;23;89512;-86
2023/11/04 11:29:47;;;;;;;25.48;8.20;;;22.10;60.40;;;;;;6111811;23;88958;-86
2023/11/04 11:32:13;;;;;;;;;;;22.10;60.00;;;;;;6081723;23;87218;-87
2023/11/04 11:34:55;;;;;;;27.60;9.20;;;22.10;60.20;;;;;;6089160;23;86716;-86
2023/11/04 11:37:22;;;;;;;23.98;9.35;;;22.10;59.90;;;;;;6064473;23;89825;-86
2023/11/04 11:39:49;;;;;;;25.15;8.43;;;22.10;59.80;;;;;;6083230;23;87491;-87
2023/11/04 11:42:15;;;;;;;24.80;8.57;;;22.10;59.60;;;;;;6056900;23;87468;-85
2023/11/04 11:44:44;;;;;;;26.33;8.98;;;22.20;59.90;;;;;;6077336;23;87097;-89
2023/11/04 11:47:10;;;;;;;27.45;7.65;;;22.20;60.20;;;;;;6084926;23;90396;-87
2023/11/04 11:49:38;;;;;;;26.70;8.98;;;22.20;60.20;;;;;;6087039;23;88393;-87
2023/11/04 11:52:04;;;;;;;25.30;8.18;;;22.20;60.60;;;;;;6079748;23;88079;-88
2023/11/04 11:54:31;;;;;;;21.35;8.05;;;22.20;60.50;;;;;;6082620;23;87205;-86
2023/11/04 11:56:57;;;;;;;24.58;8.68;;;22.20;60.60;;;;;;6081408;23;87583;-87
2023/11/04 11:59:23;;;;;;;26.60;8.32;;;22.20;60.90;;;;;;6082619;23;88610;-86
2023/11/04 12:01:51;;;;;;;31.88;9.30;;;22.20;61.10;;;;;;6082555;23;87989;-86
2023/11/04 12:04:18;;;;;;;31.60;9.75;;;22.20;61.30;;;;;;6077969;23;89075;-86
2023/11/04 12:06:43;;;;;;;24.63;8.32;;;22.20;61.10;;;;;;6071839;23;90572;-87
2023/11/04 12:09:11;;;;;;;21.27;7.90;;;22.20;61.10;;;;;;6082519;23;86697;-87
2023/11/04 12:11:37;;;;;;;22.90;8.13;;;22.20;61.10;;;;;;6082135;23;87121;-87
2023/11/04 12:14:03;;;;;;;22.83;8.43;;;22.20;61.00;;;;;;6085563;23;89581;-87
2023/11/04 12:16:29;;;;;;;22.40;7.72;;;22.20;61.00;;;;;;6089045;23;88991;-86
2023/11/04 12:18:55;;;;;;;17.38;6.82;;;22.20;60.80;;;;;;6068625;23;90004;-87
2023/11/04 12:21:21;;;;;;;21.40;7.53;;;22.30;60.70;;;;;;6049258;23;87785;-87
2023/11/04 12:23:47;;;;;;;22.48;7.68;;;22.30;60.60;;;;;;6080048;23;88209;-87
2023/11/04 12:26:14;;;;;;;21.00;8.05;;;22.30;60.70;;;;;;6080714;23;90932;-86
2023/11/04 12:28:41;;;;;;;25.48;7.93;;;22.30;61.10;;;;;;6085773;23;91294;-87
2023/11/04 12:31:07;;;;;;;23.27;7.97;;;22.30;61.10;;;;;;6094076;23;87383;-86
2023/11/04 12:33:35;;;;;;;24.58;7.82;;;22.30;61.20;;;;;;6080166;23;89114;-87
2023/11/04 12:36:03;;;;;;;13.73;5.30;;;22.30;60.70;;;;;;6081479;23;89408;-87
2023/11/04 12:38:29;;;;;;;17.10;6.32;;;22.30;60.70;;;;;;6082145;23;88893;-88
2023/11/04 12:40:55;;;;;;;19.80;5.95;;;22.30;60.80;;;;;;6080883;23;88370;-87